Spabunker 51 — ECNA — position and weather

sailwx.info

Track history (hours):
 
Tides and Currents Weather Stations Pressure Air Temp Water Temp Dewpoint Dewpoint Depression Visibility Wind Speed Wind Dir Waves Ship Positions

Spabunker 51

Last reported at 2016-May-30 02:33 UTC. Time now 2016-May-30 03:06 UTC.
Position N 36°08' W 005°26'.

Length 84 m; draft 5.8 m.

Type: Tanker. MMSI: 224322240.

Date/timePositionNaut miles runAvg speedWind from/ knotsBaromVisibWave heightAir tempDewpointWater temp
2016-May-30 02:33N 36°08' W 005°26'0 0.4
2016-May-30 01:33N 36°09' W 005°26'0 0.1
2016-May-30 00:33N 36°09' W 005°26'0 0.0
2016-May-29 23:33N 36°09' W 005°26'0 0.0
2016-May-29 22:33N 36°09' W 005°26'0 0.0
2016-May-29 20:29N 36°09' W 005°26'0 0.0
2016-May-29 19:33N 36°09' W 005°26'2 0.4
2016-May-29 13:33N 36°11' W 005°24'0 0.0
2016-May-29 12:33N 36°11' W 005°24'0 0.0
2016-May-29 11:33N 36°11' W 005°24'0 0.0
2016-May-29 10:33N 36°11' W 005°24'0 0.0
2016-May-29 09:33N 36°11' W 005°24'2 1.4
2016-May-29 08:16N 36°09' W 005°25'1 0.9
2016-May-29 07:33N 36°09' W 005°26'0 0.0
2016-May-29 06:32N 36°09' W 005°26'0 0.0
2016-May-29 05:33N 36°09' W 005°26'0 0.0
2016-May-29 04:33N 36°09' W 005°26'0 0.0
2016-May-29 03:33N 36°09' W 005°26'3 2.8
2016-May-29 02:33N 36°06' W 005°24'0 0.1
2016-May-29 01:33N 36°06' W 005°24'0 0.0
2016-May-29 00:33N 36°06' W 005°24'0 0.1
2016-May-28 23:33N 36°06' W 005°24'0 0.0
2016-May-28 22:33N 36°06' W 005°24'0 0.1
2016-May-28 21:33N 36°06' W 005°24'0 0.0
2016-May-28 20:33N 36°06' W 005°24'0 0.0
2016-May-28 19:33N 36°06' W 005°24'0 0.0
2016-May-28 18:33N 36°06' W 005°24'4 3.0
2016-May-28 17:24N 36°10' W 005°23'0 0.0
2016-May-28 16:26N 36°10' W 005°23'0 0.0
2016-May-28 15:32N 36°10' W 005°23'0 0.0
2016-May-28 14:32N 36°10' W 005°23'0 0.0
2016-May-28 13:33N 36°10' W 005°23'0 0.1
2016-May-28 12:33N 36°10' W 005°23'2 2.2
2016-May-28 11:31N 36°08' W 005°24'1 1.5
2016-May-28 10:33N 36°06' W 005°24'0 0.0
2016-May-28 09:33N 36°06' W 005°24'0 0.0
2016-May-28 08:33N 36°06' W 005°24'0 0.0
2016-May-28 07:33N 36°06' W 005°24'0 0.0
2016-May-28 06:32N 36°06' W 005°24'1 0.9
2016-May-28 05:33N 36°07' W 005°24'0 0.0
2016-May-28 04:33N 36°07' W 005°24'0 0.1
2016-May-28 03:33N 36°07' W 005°24'0 0.1
2016-May-28 02:33N 36°07' W 005°24'0 0.0
2016-May-28 01:33N 36°07' W 005°24'0 0.0
2016-May-28 00:33N 36°07' W 005°24'0 0.0
2016-May-27 23:33N 36°07' W 005°24'2 0.9
2016-May-27 21:14N 36°09' W 005°26'1 0.8
2016-May-27 20:33N 36°08' W 005°26'0 0.0
2016-May-27 19:33N 36°08' W 005°26'0 0.0
2016-May-27 18:31N 36°08' W 005°26'0 0.0
2016-May-27 17:33N 36°08' W 005°26'0 0.0
2016-May-27 16:33N 36°08' W 005°26'0 0.0
2016-May-27 15:33N 36°08' W 005°26'1 1.0
2016-May-27 14:32N 36°09' W 005°26'3 2.7
2016-May-27 13:32N 36°07' W 005°25'1 0.7
2016-May-27 12:33N 36°06' W 005°25'0 0.0
2016-May-27 11:33N 36°06' W 005°25'0 0.0
2016-May-27 10:33N 36°06' W 005°25'0 0.0
2016-May-27 08:33N 36°06' W 005°25'0 0.1
2016-May-27 07:33N 36°06' W 005°25'0 0.0
2016-May-27 06:33N 36°06' W 005°25'0 0.0
2016-May-27 05:33N 36°06' W 005°25'0 0.3
2016-May-27 04:33N 36°06' W 005°25'4 4.2
2016-May-27 03:33N 36°11' W 005°24'0 0.0
2016-May-27 02:33N 36°11' W 005°24'0 0.0
2016-May-27 01:33N 36°11' W 005°24'0 0.0
2016-May-27 00:33N 36°11' W 005°24'0 0.0
2016-May-26 23:33N 36°11' W 005°24'0 0.0
2016-May-26 22:33N 36°11' W 005°24'0 0.0
2016-May-26 21:33N 36°11' W 005°24'0 0.0
2016-May-26 20:33N 36°11' W 005°24'0 0.0
2016-May-26 19:33N 36°11' W 005°24'0 0.0
2016-May-26 18:33N 36°11' W 005°24'1 0.6
2016-May-26 17:33N 36°10' W 005°24'2 2.4
2016-May-26 16:33N 36°09' W 005°26'0 0.0
2016-May-26 14:10N 36°09' W 005°26'1 0.1
2016-May-26 07:33N 36°09' W 005°25'1 0.9
2016-May-26 06:33N 36°09' W 005°24'0 0.1
2016-May-26 05:33N 36°09' W 005°24'0 0.1
2016-May-26 04:32N 36°09' W 005°24'0 0.1
2016-May-26 03:33N 36°09' W 005°24'0 0.0
2016-May-26 02:33N 36°09' W 005°24'0 0.1
2016-May-26 01:33N 36°09' W 005°24'0 0.1
2016-May-26 00:31N 36°09' W 005°24'0 0.0
2016-May-25 23:30N 36°09' W 005°24'0 0.0
2016-May-25 22:33N 36°09' W 005°24'0 0.0
2016-May-25 21:33N 36°09' W 005°24'0 0.1
2016-May-25 20:33N 36°09' W 005°24'0 0.1
2016-May-25 19:33N 36°09' W 005°24'1 1.5
2016-May-25 18:33N 36°11' W 005°24'0 0.0
2016-May-25 17:33N 36°11' W 005°24'0 0.0
2016-May-25 16:33N 36°11' W 005°24'0 0.0
2016-May-25 15:33N 36°11' W 005°24'0 0.0
2016-May-25 14:33N 36°11' W 005°24'0 0.0
2016-May-25 13:33N 36°11' W 005°24'0 0.0
2016-May-25 12:33N 36°11' W 005°24'0 0.0
2016-May-25 11:33N 36°11' W 005°24'0 0.0
2016-May-25 10:33N 36°11' W 005°24'0 0.5
2016-May-25 09:30N 36°10' W 005°23'0 0.0
2016-May-25 07:22N 36°10' W 005°23'0 0.1
2016-May-25 06:17N 36°10' W 005°23'0 0.1
2016-May-25 05:28N 36°10' W 005°23'0 0.0
2016-May-25 04:33N 36°10' W 005°23'0 0.0
2016-May-25 03:32N 36°10' W 005°23'0 0.0
2016-May-25 02:33N 36°10' W 005°23'0 0.0
2016-May-25 01:32N 36°10' W 005°23'0 0.0
2016-May-25 00:33N 36°10' W 005°23'0 0.0
2016-May-24 23:32N 36°10' W 005°23'0 0.0
2016-May-24 22:31N 36°10' W 005°23'0 0.0
2016-May-24 21:32N 36°10' W 005°23'0 0.0
2016-May-24 20:33N 36°10' W 005°23'0 0.0
2016-May-24 19:33N 36°10' W 005°23'0 0.0
2016-May-24 18:33N 36°10' W 005°23'0 0.1
2016-May-24 17:32N 36°10' W 005°23'0 0.0
2016-May-24 16:32N 36°10' W 005°23'3 2.7
2016-May-24 15:34N 36°09' W 005°26'0 0.0
2016-May-24 14:33N 36°09' W 005°26'0 0.0
2016-May-24 13:33N 36°09' W 005°26'0 0.0
2016-May-24 12:33N 36°09' W 005°26'0 0.4
2016-May-24 11:33N 36°08' W 005°26'0 0.0
2016-May-24 10:33N 36°08' W 005°26'0 0.0
2016-May-24 09:33N 36°08' W 005°26'0 0.0
2016-May-24 08:28N 36°08' W 005°26'0 0.0
2016-May-24 07:32N 36°08' W 005°26'0 0.0
2016-May-24 06:12N 36°08' W 005°26'0 0.0
2016-May-24 05:33N 36°08' W 005°26'0 0.0
2016-May-24 04:33N 36°08' W 005°26'0 0.0
2016-May-24 03:33N 36°08' W 005°26'0 0.0
2016-May-24 02:10N 36°08' W 005°26'0 0.7
2016-May-24 01:33N 36°09' W 005°26'0 0.0
2016-May-24 00:33N 36°09' W 005°26'0 0.0
2016-May-23 23:33N 36°09' W 005°26'0 0.0
2016-May-23 22:33N 36°09' W 005°26'0 0.0
2016-May-23 21:32N 36°09' W 005°26'0 0.0
2016-May-23 19:16N 36°09' W 005°26'0 0.0
2016-May-23 18:33N 36°09' W 005°26'2 2.5
2016-May-23 17:33N 36°11' W 005°24'0 0.0
2016-May-23 16:33N 36°11' W 005°24'0 0.0
2016-May-23 15:33N 36°11' W 005°24'0 0.0
2016-May-23 14:33N 36°11' W 005°24'0 0.0
2016-May-23 13:33N 36°11' W 005°24'0 0.0
2016-May-23 12:33N 36°11' W 005°24'0 0.0
2016-May-23 11:27N 36°11' W 005°24'3 0.1
2016-May-21 23:27N 36°08' W 005°26'2 0.1
2016-May-21 02:18N 36°06' W 005°25'2 0.1
2016-May-20 04:19N 36°09' W 005°26'1 1.7
2016-May-20 03:33N 36°08' W 005°26'0 0.0
2016-May-20 02:33N 36°08' W 005°26'  
Track history (hours):
 
Tides and Currents Weather Stations Pressure Air Temp Water Temp Dewpoint Dewpoint Depression Visibility Wind Speed Wind Dir Waves Ship Positions

Spabunker 51

Last reported at 2016-May-30 02:33 UTC. Time now 2016-May-30 03:06 UTC.
Position N 36°08' W 005°26'.

Length 84 m; draft 5.8 m.

Type: Tanker. MMSI: 224322240.

Date/timePositionNaut miles runAvg speedWind from/ knotsBaromVisibWave heightAir tempDewpointWater temp
2016-May-30 02:33N 36°08' W 005°26'0 0.4
2016-May-30 01:33N 36°09' W 005°26'0 0.1
2016-May-30 00:33N 36°09' W 005°26'0 0.0
2016-May-29 23:33N 36°09' W 005°26'0 0.0
2016-May-29 22:33N 36°09' W 005°26'0 0.0
2016-May-29 20:29N 36°09' W 005°26'0 0.0
2016-May-29 19:33N 36°09' W 005°26'2 0.4
2016-May-29 13:33N 36°11' W 005°24'0 0.0
2016-May-29 12:33N 36°11' W 005°24'0 0.0
2016-May-29 11:33N 36°11' W 005°24'0 0.0
2016-May-29 10:33N 36°11' W 005°24'0 0.0
2016-May-29 09:33N 36°11' W 005°24'2 1.4
2016-May-29 08:16N 36°09' W 005°25'1 0.9
2016-May-29 07:33N 36°09' W 005°26'0 0.0
2016-May-29 06:32N 36°09' W 005°26'0 0.0
2016-May-29 05:33N 36°09' W 005°26'0 0.0
2016-May-29 04:33N 36°09' W 005°26'0 0.0
2016-May-29 03:33N 36°09' W 005°26'3 2.8
2016-May-29 02:33N 36°06' W 005°24'0 0.1
2016-May-29 01:33N 36°06' W 005°24'0 0.0
2016-May-29 00:33N 36°06' W 005°24'0 0.1
2016-May-28 23:33N 36°06' W 005°24'0 0.0
2016-May-28 22:33N 36°06' W 005°24'0 0.1
2016-May-28 21:33N 36°06' W 005°24'0 0.0
2016-May-28 20:33N 36°06' W 005°24'0 0.0
2016-May-28 19:33N 36°06' W 005°24'0 0.0
2016-May-28 18:33N 36°06' W 005°24'4 3.0
2016-May-28 17:24N 36°10' W 005°23'0 0.0
2016-May-28 16:26N 36°10' W 005°23'0 0.0
2016-May-28 15:32N 36°10' W 005°23'0 0.0
2016-May-28 14:32N 36°10' W 005°23'0 0.0
2016-May-28 13:33N 36°10' W 005°23'0 0.1
2016-May-28 12:33N 36°10' W 005°23'2 2.2
2016-May-28 11:31N 36°08' W 005°24'1 1.5
2016-May-28 10:33N 36°06' W 005°24'0 0.0
2016-May-28 09:33N 36°06' W 005°24'0 0.0
2016-May-28 08:33N 36°06' W 005°24'0 0.0
2016-May-28 07:33N 36°06' W 005°24'0 0.0
2016-May-28 06:32N 36°06' W 005°24'1 0.9
2016-May-28 05:33N 36°07' W 005°24'0 0.0
2016-May-28 04:33N 36°07' W 005°24'0 0.1
2016-May-28 03:33N 36°07' W 005°24'0 0.1
2016-May-28 02:33N 36°07' W 005°24'0 0.0
2016-May-28 01:33N 36°07' W 005°24'0 0.0
2016-May-28 00:33N 36°07' W 005°24'0 0.0
2016-May-27 23:33N 36°07' W 005°24'2 0.9
2016-May-27 21:14N 36°09' W 005°26'1 0.8
2016-May-27 20:33N 36°08' W 005°26'0 0.0
2016-May-27 19:33N 36°08' W 005°26'0 0.0
2016-May-27 18:31N 36°08' W 005°26'0 0.0
2016-May-27 17:33N 36°08' W 005°26'0 0.0
2016-May-27 16:33N 36°08' W 005°26'0 0.0
2016-May-27 15:33N 36°08' W 005°26'1 1.0
2016-May-27 14:32N 36°09' W 005°26'3 2.7
2016-May-27 13:32N 36°07' W 005°25'1 0.7
2016-May-27 12:33N 36°06' W 005°25'0 0.0
2016-May-27 11:33N 36°06' W 005°25'0 0.0
2016-May-27 10:33N 36°06' W 005°25'0 0.0
2016-May-27 08:33N 36°06' W 005°25'0 0.1
2016-May-27 07:33N 36°06' W 005°25'0 0.0
2016-May-27 06:33N 36°06' W 005°25'0 0.0
2016-May-27 05:33N 36°06' W 005°25'0 0.3
2016-May-27 04:33N 36°06' W 005°25'4 4.2
2016-May-27 03:33N 36°11' W 005°24'0 0.0
2016-May-27 02:33N 36°11' W 005°24'0 0.0
2016-May-27 01:33N 36°11' W 005°24'0 0.0
2016-May-27 00:33N 36°11' W 005°24'0 0.0
2016-May-26 23:33N 36°11' W 005°24'0 0.0
2016-May-26 22:33N 36°11' W 005°24'0 0.0
2016-May-26 21:33N 36°11' W 005°24'0 0.0
2016-May-26 20:33N 36°11' W 005°24'0 0.0
2016-May-26 19:33N 36°11' W 005°24'0 0.0
2016-May-26 18:33N 36°11' W 005°24'1 0.6
2016-May-26 17:33N 36°10' W 005°24'2 2.4
2016-May-26 16:33N 36°09' W 005°26'0 0.0
2016-May-26 14:10N 36°09' W 005°26'1 0.1
2016-May-26 07:33N 36°09' W 005°25'1 0.9
2016-May-26 06:33N 36°09' W 005°24'0 0.1
2016-May-26 05:33N 36°09' W 005°24'0 0.1
2016-May-26 04:32N 36°09' W 005°24'0 0.1
2016-May-26 03:33N 36°09' W 005°24'0 0.0
2016-May-26 02:33N 36°09' W 005°24'0 0.1
2016-May-26 01:33N 36°09' W 005°24'0 0.1
2016-May-26 00:31N 36°09' W 005°24'0 0.0
2016-May-25 23:30N 36°09' W 005°24'0 0.0
2016-May-25 22:33N 36°09' W 005°24'0 0.0
2016-May-25 21:33N 36°09' W 005°24'0 0.1
2016-May-25 20:33N 36°09' W 005°24'0 0.1
2016-May-25 19:33N 36°09' W 005°24'1 1.5
2016-May-25 18:33N 36°11' W 005°24'0 0.0
2016-May-25 17:33N 36°11' W 005°24'0 0.0
2016-May-25 16:33N 36°11' W 005°24'0 0.0
2016-May-25 15:33N 36°11' W 005°24'0 0.0
2016-May-25 14:33N 36°11' W 005°24'0 0.0
2016-May-25 13:33N 36°11' W 005°24'0 0.0
2016-May-25 12:33N 36°11' W 005°24'0 0.0
2016-May-25 11:33N 36°11' W 005°24'0 0.0
2016-May-25 10:33N 36°11' W 005°24'0 0.5
2016-May-25 09:30N 36°10' W 005°23'0 0.0
2016-May-25 07:22N 36°10' W 005°23'0 0.1
2016-May-25 06:17N 36°10' W 005°23'0 0.1
2016-May-25 05:28N 36°10' W 005°23'0 0.0
2016-May-25 04:33N 36°10' W 005°23'0 0.0
2016-May-25 03:32N 36°10' W 005°23'0 0.0
2016-May-25 02:33N 36°10' W 005°23'0 0.0
2016-May-25 01:32N 36°10' W 005°23'0 0.0
2016-May-25 00:33N 36°10' W 005°23'0 0.0
2016-May-24 23:32N 36°10' W 005°23'0 0.0
2016-May-24 22:31N 36°10' W 005°23'0 0.0
2016-May-24 21:32N 36°10' W 005°23'0 0.0
2016-May-24 20:33N 36°10' W 005°23'0 0.0
2016-May-24 19:33N 36°10' W 005°23'0 0.0
2016-May-24 18:33N 36°10' W 005°23'0 0.1
2016-May-24 17:32N 36°10' W 005°23'0 0.0
2016-May-24 16:32N 36°10' W 005°23'3 2.7
2016-May-24 15:34N 36°09' W 005°26'0 0.0
2016-May-24 14:33N 36°09' W 005°26'0 0.0
2016-May-24 13:33N 36°09' W 005°26'0 0.0
2016-May-24 12:33N 36°09' W 005°26'0 0.4
2016-May-24 11:33N 36°08' W 005°26'0 0.0
2016-May-24 10:33N 36°08' W 005°26'0 0.0
2016-May-24 09:33N 36°08' W 005°26'0 0.0
2016-May-24 08:28N 36°08' W 005°26'0 0.0
2016-May-24 07:32N 36°08' W 005°26'0 0.0
2016-May-24 06:12N 36°08' W 005°26'0 0.0
2016-May-24 05:33N 36°08' W 005°26'0 0.0
2016-May-24 04:33N 36°08' W 005°26'0 0.0
2016-May-24 03:33N 36°08' W 005°26'0 0.0
2016-May-24 02:10N 36°08' W 005°26'0 0.7
2016-May-24 01:33N 36°09' W 005°26'0 0.0
2016-May-24 00:33N 36°09' W 005°26'0 0.0
2016-May-23 23:33N 36°09' W 005°26'0 0.0
2016-May-23 22:33N 36°09' W 005°26'0 0.0
2016-May-23 21:32N 36°09' W 005°26'0 0.0
2016-May-23 19:16N 36°09' W 005°26'0 0.0
2016-May-23 18:33N 36°09' W 005°26'2 2.5
2016-May-23 17:33N 36°11' W 005°24'0 0.0
2016-May-23 16:33N 36°11' W 005°24'0 0.0
2016-May-23 15:33N 36°11' W 005°24'0 0.0
2016-May-23 14:33N 36°11' W 005°24'0 0.0
2016-May-23 13:33N 36°11' W 005°24'0 0.0
2016-May-23 12:33N 36°11' W 005°24'0 0.0
2016-May-23 11:27N 36°11' W 005°24'3 0.1
2016-May-21 23:27N 36°08' W 005°26'2 0.1
2016-May-21 02:18N 36°06' W 005°25'2 0.1
2016-May-20 04:19N 36°09' W 005°26'1 1.7
2016-May-20 03:33N 36°08' W 005°26'0 0.0
2016-May-20 02:33N 36°08' W 005°26'  

Dump ship's entire track history